Time;durP1;ratioP1;P1;durP2;ratioP2;P2;SDS_P1;SDS_P2;PMS_P1;PMS_P2;Temp;Humidity;BMP_temperature;BMP_pressure;BME280_temperature;BME280_humidity;BME280_pressure;Samples;Min_cycle;Max_cycle;Signal;HPM_P1;HPM_P2
2022/10/11 00:02:14;;;;;;;4.10;3.08;;;;;;;;;;5026847;28;20632;-61
2022/10/11 00:04:41;;;;;;;8.90;2.70;;;;;;;;;;5027453;28;20702;-61
2022/10/11 00:07:08;;;;;;;5.25;2.83;;;;;;;;;;5027051;28;20201;-61
2022/10/11 00:09:35;;;;;;;4.10;2.97;;;;;;;;;;5026680;28;20302;-61
2022/10/11 00:12:04;;;;;;;5.45;3.53;;;;;;;;;;5027569;28;20208;-61
2022/10/11 00:14:32;;;;;;;4.13;3.13;;;;;;;;;;5028189;28;20208;-62
2022/10/11 00:17:00;;;;;;;6.32;3.35;;;;;;;;;;5027576;28;20219;-61
2022/10/11 00:19:27;;;;;;;5.03;3.57;;;;;;;;;;5027931;28;20235;-61
2022/10/11 00:21:54;;;;;;;7.63;4.15;;;;;;;;;;5027419;28;20212;-62
2022/10/11 00:24:21;;;;;;;5.63;3.63;;;;;;;;;;5028110;28;20197;-61
2022/10/11 00:26:48;;;;;;;7.15;4.32;;;;;;;;;;5027329;28;20243;-61
2022/10/11 00:29:17;;;;;;;8.30;4.20;;;;;;;;;;5027823;28;20204;-61
2022/10/11 00:31:44;;;;;;;8.07;4.15;;;;;;;;;;5025482;28;20211;-62
2022/10/11 00:34:12;;;;;;;5.90;4.47;;;;;;;;;;5024462;28;20204;-61
2022/10/11 00:36:39;;;;;;;5.53;4.43;;;;;;;;;;5026765;28;20299;-61
2022/10/11 00:39:06;;;;;;;5.17;4.23;;;;;;;;;;5026534;28;20200;-61
2022/10/11 00:41:33;;;;;;;5.22;4.35;;;;;;;;;;5025837;28;20224;-63
2022/10/11 00:44:10;;;;;;;6.82;4.47;;;;;;;;;;5024104;28;20205;-62
2022/10/11 00:46:39;;;;;;;5.13;4.20;;;;;;;;;;5022089;28;20214;-62
2022/10/11 00:49:10;;;;;;;6.70;4.35;;;;;;;;;;5019792;28;20203;-61
2022/10/11 00:51:43;;;;;;;9.20;4.28;;;;;;;;;;5024377;28;20658;-61
2022/10/11 00:54:12;;;;;;;8.52;4.75;;;;;;;;;;5025118;28;20207;-61
2022/10/11 00:56:40;;;;;;;7.88;5.05;;;;;;;;;;5024548;28;20213;-61
2022/10/11 00:59:10;;;;;;;9.23;5.57;;;;;;;;;;5024503;28;20212;-62
2022/10/11 01:01:39;;;;;;;7.40;5.27;;;;;;;;;;5025475;28;20224;-62
2022/10/11 01:04:06;;;;;;;9.82;5.72;;;;;;;;;;5025622;28;20630;-61
2022/10/11 01:06:33;;;;;;;8.33;5.63;;;;;;;;;;5025093;28;20212;-62
2022/10/11 01:09:01;;;;;;;7.33;5.20;;;;;;;;;;5026493;28;20200;-62
2022/10/11 01:11:29;;;;;;;5.95;5.30;;;;;;;;;;5029328;28;20200;-61
2022/10/11 01:14:01;;;;;;;6.73;5.50;;;;;;;;;;5027963;28;20208;-61
2022/10/11 01:16:32;;;;;;;9.27;5.67;;;;;;;;;;5027432;28;20714;-61
2022/10/11 01:19:09;;;;;;;9.32;6.35;;;;;;;;;;5027889;28;20208;-61
2022/10/11 01:21:38;;;;;;;7.20;5.73;;;;;;;;;;5025288;28;20227;-61
2022/10/11 01:24:16;;;;;;;7.22;5.95;;;;;;;;;;5028915;28;20916;-61
2022/10/11 01:27:07;;;;;;;8.23;5.23;;;;;;;;;;5029289;28;20577;-62
2022/10/11 01:29:42;;;;;;;11.77;5.90;;;;;;;;;;5029722;28;20211;-61
2022/10/11 01:32:14;;;;;;;7.57;5.47;;;;;;;;;;5030295;28;20211;-61
2022/10/11 01:34:44;;;;;;;9.23;6.28;;;;;;;;;;5030558;28;20208;-61
2022/10/11 01:37:15;;;;;;;8.83;5.83;;;;;;;;;;5030446;28;20216;-61
2022/10/11 01:39:44;;;;;;;13.90;6.83;;;;;;;;;;5029969;28;20651;-62
2022/10/11 01:42:12;;;;;;;7.47;5.90;;;;;;;;;;5029541;28;20569;-61
2022/10/11 01:44:41;;;;;;;10.43;6.27;;;;;;;;;;5029089;28;20204;-61
2022/10/11 01:47:08;;;;;;;10.93;6.20;;;;;;;;;;5028140;28;20204;-61
2022/10/11 01:49:37;;;;;;;8.83;6.00;;;;;;;;;;5028168;28;20343;-62
2022/10/11 01:52:05;;;;;;;11.03;5.87;;;;;;;;;;5026643;28;20209;-61
2022/10/11 01:54:46;;;;;;;8.83;5.93;;;;;;;;;;5028088;28;20201;-61
2022/10/11 01:57:19;;;;;;;7.37;5.57;;;;;;;;;;5022365;28;20650;-65
2022/10/11 01:59:52;;;;;;;6.83;5.27;;;;;;;;;;5026351;28;20204;-61
2022/10/11 02:02:30;;;;;;;7.07;5.80;;;;;;;;;;5028886;28;20216;-61
2022/10/11 02:05:03;;;;;;;7.67;6.10;;;;;;;;;;5028403;28;20276;-61
2022/10/11 02:07:33;;;;;;;7.43;5.87;;;;;;;;;;5025826;28;20204;-62
2022/10/11 02:10:04;;;;;;;9.50;5.93;;;;;;;;;;5025996;28;20197;-61
2022/10/11 02:12:33;;;;;;;7.10;5.83;;;;;;;;;;5027528;28;20679;-61
2022/10/11 02:15:02;;;;;;;10.73;6.47;;;;;;;;;;5026275;28;20205;-61
2022/10/11 02:17:31;;;;;;;15.70;6.33;;;;;;;;;;5027715;28;20227;-62
2022/10/11 02:20:01;;;;;;;8.67;6.17;;;;;;;;;;5026908;28;20200;-61
2022/10/11 02:22:31;;;;;;;6.40;5.37;;;;;;;;;;5026329;28;20208;-62
2022/10/11 02:25:00;;;;;;;8.83;5.70;;;;;;;;;;5027695;28;20208;-61
2022/10/11 02:27:30;;;;;;;7.37;5.43;;;;;;;;;;5026641;28;20567;-61
2022/10/11 02:29:58;;;;;;;15.67;6.23;;;;;;;;;;5027181;28;20677;-61
2022/10/11 02:32:26;;;;;;;7.57;4.93;;;;;;;;;;5027140;28;20301;-61
2022/10/11 02:34:54;;;;;;;7.43;5.27;;;;;;;;;;5026573;28;20208;-61
2022/10/11 02:37:25;;;;;;;7.80;5.80;;;;;;;;;;5026911;28;20200;-61
2022/10/11 02:39:54;;;;;;;11.43;5.40;;;;;;;;;;5026706;28;20200;-61
2022/10/11 02:42:25;;;;;;;5.10;4.60;;;;;;;;;;5026126;28;20201;-61
2022/10/11 02:44:59;;;;;;;4.97;4.33;;;;;;;;;;5028597;28;20209;-61
2022/10/11 02:47:27;;;;;;;6.87;4.47;;;;;;;;;;5028954;28;20215;-61
2022/10/11 02:49:54;;;;;;;6.97;4.40;;;;;;;;;;5027002;28;20204;-61
2022/10/11 02:52:22;;;;;;;10.43;4.83;;;;;;;;;;5026222;28;20204;-61
2022/10/11 02:54:49;;;;;;;4.80;4.03;;;;;;;;;;5025989;28;20398;-61
2022/10/11 02:57:16;;;;;;;4.67;4.17;;;;;;;;;;5026490;28;20678;-61
2022/10/11 02:59:43;;;;;;;7.30;3.50;;;;;;;;;;5027330;28;20206;-61
2022/10/11 03:02:10;;;;;;;3.10;2.90;;;;;;;;;;5026079;28;20224;-61
2022/10/11 03:04:37;;;;;;;4.33;3.10;;;;;;;;;;5026651;28;20220;-61
2022/10/11 03:07:04;;;;;;;3.43;3.13;;;;;;;;;;5026666;28;20208;-61
2022/10/11 03:09:36;;;;;;;2.37;2.17;;;;;;;;;;5025813;28;20303;-61
2022/10/11 03:12:03;;;;;;;2.03;1.93;;;;;;;;;;5024588;28;20200;-62
2022/10/11 03:14:30;;;;;;;1.70;1.60;;;;;;;;;;5026908;28;20232;-61
2022/10/11 03:16:58;;;;;;;1.40;1.40;;;;;;;;;;5026391;28;20663;-61
2022/10/11 03:19:25;;;;;;;2.90;1.47;;;;;;;;;;5026188;28;20205;-61
2022/10/11 03:21:53;;;;;;;4.90;1.40;;;;;;;;;;5025152;28;20263;-61
2022/10/11 03:24:20;;;;;;;2.40;1.20;;;;;;;;;;5025921;28;20219;-61
2022/10/11 03:26:48;;;;;;;1.47;1.13;;;;;;;;;;5025405;28;20247;-62
2022/10/11 03:29:15;;;;;;;2.40;1.37;;;;;;;;;;5026474;28;20211;-61
2022/10/11 03:31:42;;;;;;;7.70;0.77;;;;;;;;;;5025770;28;20196;-61
2022/10/11 03:34:09;;;;;;;3.17;0.90;;;;;;;;;;5024613;28;20929;-61
2022/10/11 03:36:36;;;;;;;1.93;0.90;;;;;;;;;;5025579;28;20259;-61
2022/10/11 03:39:04;;;;;;;0.80;0.80;;;;;;;;;;5026338;28;20216;-61
2022/10/11 03:41:31;;;;;;;0.87;0.87;;;;;;;;;;5025980;28;20224;-61
2022/10/11 03:43:59;;;;;;;0.60;0.60;;;;;;;;;;5027202;28;20215;-61
2022/10/11 03:46:26;;;;;;;1.37;0.60;;;;;;;;;;5027422;28;20200;-60
2022/10/11 03:48:53;;;;;;;4.63;1.13;;;;;;;;;;5027070;28;20213;-60
2022/10/11 03:51:20;;;;;;;0.60;0.60;;;;;;;;;;5026351;28;20209;-61
2022/10/11 03:53:47;;;;;;;2.73;0.50;;;;;;;;;;5025535;28;20200;-61
2022/10/11 03:56:15;;;;;;;0.70;0.63;;;;;;;;;;5024425;28;20279;-61
2022/10/11 03:58:42;;;;;;;0.43;0.43;;;;;;;;;;5026753;28;20212;-61
2022/10/11 04:01:10;;;;;;;1.50;0.70;;;;;;;;;;5021688;28;20220;-60
2022/10/11 04:03:37;;;;;;;3.43;0.80;;;;;;;;;;5024969;28;20223;-61
2022/10/11 04:06:05;;;;;;;2.17;0.70;;;;;;;;;;5026555;28;20215;-61
2022/10/11 04:08:32;;;;;;;1.90;0.60;;;;;;;;;;5025463;28;20730;-61
2022/10/11 04:10:59;;;;;;;2.03;1.00;;;;;;;;;;5026289;28;20211;-61
2022/10/11 04:13:26;;;;;;;3.70;1.00;;;;;;;;;;5025644;28;20208;-60
2022/10/11 04:15:53;;;;;;;0.63;0.63;;;;;;;;;;5024586;28;20220;-60
2022/10/11 04:18:22;;;;;;;1.17;1.07;;;;;;;;;;5025736;28;20219;-60
2022/10/11 04:20:49;;;;;;;2.23;0.63;;;;;;;;;;5026108;28;20254;-60
2022/10/11 04:23:16;;;;;;;2.73;0.70;;;;;;;;;;5025623;28;20212;-60
2022/10/11 04:25:44;;;;;;;1.33;0.63;;;;;;;;;;5022988;28;20208;-60
2022/10/11 04:28:11;;;;;;;1.13;0.60;;;;;;;;;;5025578;28;20232;-60
2022/10/11 04:30:38;;;;;;;1.17;0.80;;;;;;;;;;5025785;28;20212;-60
2022/10/11 04:33:05;;;;;;;1.67;0.57;;;;;;;;;;5025524;28;20210;-60
2022/10/11 04:35:33;;;;;;;0.40;0.40;;;;;;;;;;5025664;28;20557;-61
2022/10/11 04:38:00;;;;;;;3.13;0.67;;;;;;;;;;5024567;28;20579;-60
2022/10/11 04:40:29;;;;;;;2.33;0.50;;;;;;;;;;5026031;28;20288;-61
2022/10/11 04:42:56;;;;;;;1.10;0.70;;;;;;;;;;5024416;28;20210;-60
2022/10/11 04:45:25;;;;;;;1.13;0.70;;;;;;;;;;5030278;28;20874;-60
2022/10/11 04:47:52;;;;;;;3.77;0.90;;;;;;;;;;5031043;28;20199;-61
2022/10/11 04:50:19;;;;;;;2.37;0.63;;;;;;;;;;5030319;28;20208;-60
2022/10/11 04:52:47;;;;;;;1.70;0.50;;;;;;;;;;5028040;28;20197;-60
2022/10/11 04:55:14;;;;;;;0.50;0.50;;;;;;;;;;5027488;28;20201;-60
2022/10/11 04:57:41;;;;;;;2.17;0.60;;;;;;;;;;5028232;28;20207;-60
2022/10/11 05:00:09;;;;;;;3.60;0.70;;;;;;;;;;5028910;28;20204;-60
2022/10/11 05:02:36;;;;;;;0.93;0.70;;;;;;;;;;5030003;28;20228;-60
2022/10/11 05:05:04;;;;;;;2.43;0.57;;;;;;;;;;5029182;28;20204;-61
2022/10/11 05:07:31;;;;;;;4.77;0.60;;;;;;;;;;5025797;28;20200;-61
2022/10/11 05:09:59;;;;;;;3.87;0.20;;;;;;;;;;5029607;28;20205;-61
2022/10/11 05:12:26;;;;;;;1.17;0.40;;;;;;;;;;5029659;28;20208;-61
2022/10/11 05:14:53;;;;;;;4.53;0.97;;;;;;;;;;5028738;28;20209;-61
2022/10/11 05:17:20;;;;;;;0.83;0.50;;;;;;;;;;5029107;28;20215;-64
2022/10/11 05:19:47;;;;;;;5.83;0.83;;;;;;;;;;5028754;28;20212;-60
2022/10/11 05:22:14;;;;;;;2.80;0.47;;;;;;;;;;5029531;28;20229;-60
2022/10/11 05:24:55;;;;;;;0.30;0.30;;;;;;;;;;5029413;28;20204;-60
2022/10/11 05:27:23;;;;;;;1.60;0.50;;;;;;;;;;5023889;28;20231;-60
2022/10/11 05:29:50;;;;;;;0.97;0.50;;;;;;;;;;5029968;28;20236;-61
2022/10/11 05:32:17;;;;;;;1.03;0.40;;;;;;;;;;5029485;28;20208;-61
2022/10/11 05:34:45;;;;;;;4.00;0.60;;;;;;;;;;5030234;28;20212;-61
2022/10/11 05:37:12;;;;;;;1.80;0.57;;;;;;;;;;5029188;28;20335;-60
2022/10/11 05:39:39;;;;;;;1.87;0.40;;;;;;;;;;5030219;28;20220;-62
2022/10/11 05:42:06;;;;;;;4.70;0.57;;;;;;;;;;5029541;28;20224;-62
2022/10/11 05:44:34;;;;;;;2.73;0.80;;;;;;;;;;5029641;28;20231;-61
2022/10/11 05:47:02;;;;;;;2.50;0.60;;;;;;;;;;5029893;28;20204;-61
2022/10/11 05:49:29;;;;;;;2.63;0.50;;;;;;;;;;5030139;28;20208;-60
2022/10/11 05:51:56;;;;;;;4.73;0.70;;;;;;;;;;5029446;28;20342;-61
2022/10/11 05:54:23;;;;;;;0.53;0.53;;;;;;;;;;5029054;28;20231;-61
2022/10/11 05:59:44;;;;;;;1.33;0.43;;;;;;;;;;5017370;28;20208;-61
2022/10/11 06:02:11;;;;;;;1.20;0.30;;;;;;;;;;5029317;28;20234;-61
2022/10/11 06:04:38;;;;;;;4.70;0.70;;;;;;;;;;5029233;28;20255;-61
2022/10/11 06:07:06;;;;;;;2.07;0.40;;;;;;;;;;5029292;28;20215;-61
2022/10/11 06:09:34;;;;;;;1.90;0.50;;;;;;;;;;5029182;28;20216;-61
2022/10/11 06:12:01;;;;;;;1.60;0.83;;;;;;;;;;5029149;28;20674;-61
2022/10/11 06:14:28;;;;;;;0.30;0.30;;;;;;;;;;5029689;28;20220;-60
2022/10/11 06:16:56;;;;;;;0.70;0.70;;;;;;;;;;5029178;28;20212;-61
2022/10/11 06:19:24;;;;;;;1.17;0.63;;;;;;;;;;5028884;28;20216;-61
2022/10/11 06:21:51;;;;;;;0.50;0.50;;;;;;;;;;5028826;28;20228;-60
2022/10/11 06:24:18;;;;;;;1.50;0.50;;;;;;;;;;5016873;28;20212;-61
2022/10/11 06:26:45;;;;;;;6.17;0.97;;;;;;;;;;5028667;28;20236;-61
2022/10/11 06:29:12;;;;;;;1.73;0.73;;;;;;;;;;5029161;28;20205;-61
2022/10/11 06:31:39;;;;;;;1.30;0.40;;;;;;;;;;5009549;28;20201;-61
2022/10/11 06:34:08;;;;;;;3.07;0.70;;;;;;;;;;5028742;28;20196;-61
2022/10/11 06:36:35;;;;;;;1.80;0.50;;;;;;;;;;5028491;28;20334;-61
2022/10/11 06:39:02;;;;;;;0.47;0.47;;;;;;;;;;5028651;28;20200;-62
2022/10/11 06:41:30;;;;;;;0.40;0.40;;;;;;;;;;5028457;28;20224;-61
2022/10/11 06:43:57;;;;;;;0.73;0.70;;;;;;;;;;5028748;28;20213;-61
2022/10/11 06:46:25;;;;;;;1.23;1.07;;;;;;;;;;5028857;28;20212;-58
2022/10/11 06:48:52;;;;;;;3.07;0.80;;;;;;;;;;5028134;28;20215;-61
2022/10/11 06:51:22;;;;;;;1.90;0.83;;;;;;;;;;5028129;28;20208;-61
2022/10/11 06:53:50;;;;;;;1.13;0.70;;;;;;;;;;5028594;28;20201;-61
2022/10/11 06:56:17;;;;;;;1.57;0.80;;;;;;;;;;5028312;28;20344;-62
2022/10/11 06:58:44;;;;;;;4.60;1.00;;;;;;;;;;5028790;28;20220;-60
2022/10/11 07:01:12;;;;;;;1.73;0.60;;;;;;;;;;5028462;28;20200;-60
2022/10/11 07:03:40;;;;;;;1.40;0.60;;;;;;;;;;5027247;28;20224;-60
2022/10/11 07:06:08;;;;;;;3.27;0.80;;;;;;;;;;5028361;28;20834;-60
2022/10/11 07:08:37;;;;;;;0.40;0.40;;;;;;;;;;5008378;28;20221;-61
2022/10/11 07:11:05;;;;;;;1.03;0.70;;;;;;;;;;5007902;28;20718;-61
2022/10/11 07:13:32;;;;;;;0.93;0.60;;;;;;;;;;5018145;28;20212;-61
2022/10/11 07:16:01;;;;;;;3.80;0.80;;;;;;;;;;5028101;28;20208;-61
2022/10/11 07:18:28;;;;;;;1.03;0.83;;;;;;;;;;5027824;28;20307;-62
2022/10/11 07:20:55;;;;;;;3.30;0.93;;;;;;;;;;5027466;28;20223;-62
2022/10/11 07:23:23;;;;;;;1.83;0.97;;;;;;;;;;5027669;28;20242;-61
2022/10/11 07:25:53;;;;;;;5.30;0.93;;;;;;;;;;5027639;28;20226;-61
2022/10/11 07:28:21;;;;;;;2.33;0.50;;;;;;;;;;5025959;28;20299;-61
2022/10/11 07:30:48;;;;;;;2.23;0.73;;;;;;;;;;5027215;28;20224;-60
2022/10/11 07:33:15;;;;;;;5.73;0.70;;;;;;;;;;5027676;28;20219;-61
2022/10/11 07:35:42;;;;;;;5.77;0.70;;;;;;;;;;5027723;28;20215;-62
2022/10/11 07:38:11;;;;;;;0.80;0.57;;;;;;;;;;5027315;28;20216;-61
2022/10/11 07:40:41;;;;;;;3.30;0.50;;;;;;;;;;5026718;28;20251;-62
2022/10/11 07:43:10;;;;;;;0.73;0.20;;;;;;;;;;5026832;28;20263;-61
2022/10/11 07:45:37;;;;;;;0.50;0.37;;;;;;;;;;5027221;28;20204;-61
2022/10/11 07:48:05;;;;;;;2.60;0.53;;;;;;;;;;5027032;28;20553;-60
2022/10/11 07:50:32;;;;;;;3.73;0.70;;;;;;;;;;5027716;28;20570;-61
2022/10/11 07:53:07;;;;;;;5.03;0.87;;;;;;;;;;5027555;28;20206;-62
2022/10/11 07:55:38;;;;;;;3.50;0.67;;;;;;;;;;5027361;28;20235;-61
2022/10/11 07:58:06;;;;;;;2.10;0.53;;;;;;;;;;5027252;28;20216;-60
2022/10/11 08:00:34;;;;;;;1.50;0.70;;;;;;;;;;5027733;28;20216;-63
2022/10/11 08:03:02;;;;;;;1.50;0.57;;;;;;;;;;5027214;28;20239;-61
2022/10/11 08:05:29;;;;;;;2.27;0.30;;;;;;;;;;5027167;28;20228;-61
2022/10/11 08:07:56;;;;;;;5.57;1.00;;;;;;;;;;5027350;28;20212;-61
2022/10/11 08:10:23;;;;;;;6.40;0.90;;;;;;;;;;5027410;28;20220;-61
2022/10/11 08:12:52;;;;;;;1.30;0.67;;;;;;;;;;5027117;28;20655;-61
2022/10/11 08:15:19;;;;;;;4.17;0.63;;;;;;;;;;5027132;28;20395;-61
2022/10/11 08:17:48;;;;;;;1.90;0.40;;;;;;;;;;5027461;28;20303;-61
2022/10/11 08:20:15;;;;;;;1.33;0.67;;;;;;;;;;5030383;28;20224;-60
2022/10/11 08:22:42;;;;;;;0.20;0.20;;;;;;;;;;5030443;28;20243;-60
2022/10/11 08:25:09;;;;;;;5.93;0.77;;;;;;;;;;5031356;28;20212;-61
2022/10/11 08:27:36;;;;;;;1.87;0.57;;;;;;;;;;5031060;28;20235;-62
2022/10/11 08:30:04;;;;;;;2.97;0.50;;;;;;;;;;5031604;28;20556;-60
2022/10/11 08:32:31;;;;;;;0.10;0.10;;;;;;;;;;5031394;28;20208;-61
2022/10/11 08:34:59;;;;;;;0.30;0.20;;;;;;;;;;5030829;28;20235;-59
2022/10/11 08:37:27;;;;;;;2.63;0.60;;;;;;;;;;5031390;28;20218;-62
2022/10/11 08:39:54;;;;;;;2.90;0.37;;;;;;;;;;5031096;28;20215;-60
2022/10/11 08:42:25;;;;;;;5.37;0.93;;;;;;;;;;5031512;28;20236;-60
2022/10/11 08:44:55;;;;;;;5.60;0.33;;;;;;;;;;5030572;28;20212;-67
2022/10/11 08:47:25;;;;;;;6.80;0.53;;;;;;;;;;5030389;28;20594;-62
2022/10/11 08:49:52;;;;;;;3.33;0.60;;;;;;;;;;5027156;28;20679;-62
2022/10/11 08:52:22;;;;;;;2.00;0.27;;;;;;;;;;5022467;28;20208;-63
2022/10/11 08:54:54;;;;;;;1.13;0.30;;;;;;;;;;5026225;28;20723;-62
2022/10/11 08:57:22;;;;;;;0.37;0.20;;;;;;;;;;5024091;28;20231;-62
2022/10/11 08:59:51;;;;;;;7.07;0.60;;;;;;;;;;5030470;28;20819;-62
2022/10/11 09:02:23;;;;;;;0.20;0.20;;;;;;;;;;5029786;28;20232;-62
2022/10/11 09:04:51;;;;;;;6.37;0.47;;;;;;;;;;5030082;28;20299;-62
2022/10/11 09:07:25;;;;;;;0.50;0.30;;;;;;;;;;5030441;28;20589;-62
2022/10/11 09:10:02;;;;;;;1.10;0.30;;;;;;;;;;5030250;28;20287;-62
2022/10/11 09:12:34;;;;;;;4.70;0.87;;;;;;;;;;5030188;28;20215;-61
2022/10/11 09:15:08;;;;;;;3.27;0.50;;;;;;;;;;5030194;28;20662;-61
2022/10/11 09:17:42;;;;;;;1.10;0.20;;;;;;;;;;5039616;28;20216;-62
2022/10/11 09:20:34;;;;;;;1.57;0.53;;;;;;;;;;5037346;28;20204;-62
2022/10/11 09:23:03;;;;;;;0.20;0.20;;;;;;;;;;5025560;28;20713;-62
2022/10/11 09:25:34;;;;;;;2.80;0.50;;;;;;;;;;5040727;28;20208;-62
2022/10/11 09:28:13;;;;;;;4.70;0.50;;;;;;;;;;5030275;28;20244;-61
2022/10/11 09:30:41;;;;;;;2.77;0.60;;;;;;;;;;5029824;28;20282;-62
2022/10/11 09:33:13;;;;;;;4.17;0.73;;;;;;;;;;5030194;28;20208;-62
2022/10/11 09:35:41;;;;;;;1.53;0.40;;;;;;;;;;5030384;28;20326;-62
2022/10/11 09:38:12;;;;;;;6.57;0.90;;;;;;;;;;5030296;28;20216;-60
2022/10/11 09:40:45;;;;;;;0.57;0.43;;;;;;;;;;5029582;28;20208;-62
2022/10/11 09:43:13;;;;;;;2.87;0.50;;;;;;;;;;5024518;28;20236;-65
2022/10/11 09:45:43;;;;;;;5.60;0.67;;;;;;;;;;5049516;28;20223;-62
2022/10/11 09:48:14;;;;;;;6.03;0.67;;;;;;;;;;5041050;28;20216;-62
2022/10/11 09:50:42;;;;;;;3.13;0.40;;;;;;;;;;5029884;28;20216;-62
2022/10/11 09:53:09;;;;;;;1.08;0.22;;;;;;;;;;5029507;28;20208;-62
2022/10/11 09:55:37;;;;;;;4.57;0.30;;;;;;;;;;5028896;28;20795;-62
2022/10/11 09:58:20;;;;;;;2.30;0.38;;;;;;;;;;5029151;28;20664;-62
2022/10/11 10:00:57;;;;;;;2.10;0.47;;;;;;;;;;5029549;28;20615;-61
2022/10/11 10:03:28;;;;;;;1.90;0.40;;;;;;;;;;5029407;28;20243;-62
2022/10/11 10:06:04;;;;;;;5.10;0.40;;;;;;;;;;5028929;28;20578;-63
2022/10/11 10:08:31;;;;;;;0.83;0.33;;;;;;;;;;5028592;28;20208;-62
2022/10/11 10:10:59;;;;;;;3.90;0.47;;;;;;;;;;5028817;28;20544;-61
2022/10/11 10:13:30;;;;;;;2.42;0.70;;;;;;;;;;5027980;28;20212;-61
2022/10/11 10:15:58;;;;;;;0.57;0.50;;;;;;;;;;5028547;28;20212;-61
2022/10/11 10:18:28;;;;;;;2.85;0.30;;;;;;;;;;5028718;28;20208;-61
2022/10/11 10:20:58;;;;;;;0.43;0.20;;;;;;;;;;5029175;28;20227;-61
2022/10/11 10:23:27;;;;;;;2.88;0.47;;;;;;;;;;5028434;28;21050;-59
2022/10/11 10:26:09;;;;;;;0.77;0.20;;;;;;;;;;5028765;28;20219;-63
2022/10/11 10:28:37;;;;;;;2.57;0.40;;;;;;;;;;5028284;28;20314;-61
2022/10/11 10:31:04;;;;;;;2.05;0.40;;;;;;;;;;5025977;28;20233;-61
2022/10/11 10:33:33;;;;;;;0.35;0.17;;;;;;;;;;5026251;28;20200;-61
2022/10/11 10:36:02;;;;;;;2.20;0.35;;;;;;;;;;5028118;28;20231;-60
2022/10/11 10:38:33;;;;;;;0.73;0.60;;;;;;;;;;5028224;28;20698;-61
2022/10/11 10:41:03;;;;;;;0.13;0.10;;;;;;;;;;5027907;28;20964;-61
2022/10/11 10:43:33;;;;;;;0.60;0.30;;;;;;;;;;5027612;28;20228;-61
2022/10/11 10:46:12;;;;;;;2.63;0.35;;;;;;;;;;5028043;28;20269;-62
2022/10/11 10:48:42;;;;;;;0.93;0.40;;;;;;;;;;5027801;28;20212;-62
2022/10/11 10:51:14;;;;;;;1.33;0.40;;;;;;;;;;5027920;28;20618;-62
2022/10/11 10:53:45;;;;;;;0.28;0.28;;;;;;;;;;5028023;28;20693;-61
2022/10/11 10:56:14;;;;;;;1.25;0.45;;;;;;;;;;5027891;28;20235;-61
2022/10/11 10:58:46;;;;;;;5.22;0.43;;;;;;;;;;5027777;28;20212;-61
2022/10/11 11:01:17;;;;;;;3.13;0.32;;;;;;;;;;5027480;28;20885;-62
2022/10/11 11:03:46;;;;;;;1.85;0.20;;;;;;;;;;5028076;28;20587;-62
2022/10/11 11:06:19;;;;;;;3.03;0.30;;;;;;;;;;5028015;28;20224;-62
2022/10/11 11:08:53;;;;;;;1.83;0.70;;;;;;;;;;5027960;28;20223;-62
2022/10/11 11:11:28;;;;;;;0.93;0.50;;;;;;;;;;5027684;28;20218;-62
2022/10/11 11:13:59;;;;;;;2.67;0.30;;;;;;;;;;5026803;28;20207;-61
2022/10/11 11:16:32;;;;;;;1.55;0.25;;;;;;;;;;5025609;28;20200;-61
2022/10/11 11:19:02;;;;;;;1.98;0.30;;;;;;;;;;5028317;28;20233;-62
2022/10/11 11:21:36;;;;;;;1.58;0.32;;;;;;;;;;5027576;28;20307;-63
2022/10/11 11:24:07;;;;;;;0.30;0.30;;;;;;;;;;5023486;28;20235;-63
2022/10/11 11:26:37;;;;;;;0.70;0.38;;;;;;;;;;5026973;28;20246;-63
2022/10/11 11:29:11;;;;;;;0.43;0.43;;;;;;;;;;5027713;28;20224;-63
2022/10/11 11:31:48;;;;;;;4.35;0.25;;;;;;;;;;5027313;28;20212;-63
2022/10/11 11:34:19;;;;;;;2.78;0.28;;;;;;;;;;5027722;28;20210;-64
2022/10/11 11:36:47;;;;;;;0.30;0.25;;;;;;;;;;5027572;28;20307;-67
2022/10/11 11:39:16;;;;;;;1.23;0.38;;;;;;;;;;5027190;28;20212;-63
2022/10/11 11:41:46;;;;;;;1.95;0.22;;;;;;;;;;5026730;28;20232;-64
2022/10/11 11:44:16;;;;;;;3.33;0.25;;;;;;;;;;5026642;28;20282;-63
2022/10/11 11:46:46;;;;;;;1.77;0.45;;;;;;;;;;5027149;28;20208;-63
2022/10/11 11:49:16;;;;;;;0.40;0.30;;;;;;;;;;5023161;28;20671;-64
2022/10/11 11:51:44;;;;;;;2.05;0.20;;;;;;;;;;5026037;28;20215;-64
2022/10/11 11:54:18;;;;;;;2.67;0.30;;;;;;;;;;5026612;28;20223;-63
2022/10/11 11:56:51;;;;;;;1.45;0.50;;;;;;;;;;5026039;28;20211;-64
2022/10/11 11:59:21;;;;;;;2.65;0.30;;;;;;;;;;5025839;28;20216;-64
2022/10/11 12:01:53;;;;;;;1.27;0.35;;;;;;;;;;5025803;28;20204;-64
2022/10/11 12:04:22;;;;;;;6.18;0.22;;;;;;;;;;5025061;28;20691;-61
2022/10/11 12:07:00;;;;;;;2.92;0.30;;;;;;;;;;5025716;28;20209;-66
2022/10/11 12:09:27;;;;;;;0.25;0.25;;;;;;;;;;5025828;28;20211;-63
2022/10/11 12:11:55;;;;;;;2.38;0.40;;;;;;;;;;5024930;28;20204;-62
2022/10/11 12:14:29;;;;;;;1.83;0.40;;;;;;;;;;5025887;28;20757;-62
2022/10/11 12:17:20;;;;;;;1.75;0.55;;;;;;;;;;5016334;28;20639;-62
2022/10/11 12:20:20;;;;;;;0.25;0.25;;;;;;;;;;5011405;28;20721;-62
2022/10/11 12:22:59;;;;;;;2.00;0.50;;;;;;;;;;4980176;28;20307;-62
2022/10/11 12:25:44;;;;;;;0.60;0.40;;;;;;;;;;4984092;28;20754;-62
2022/10/11 12:28:30;;;;;;;1.45;0.43;;;;;;;;;;5001375;28;20236;-72
2022/10/11 12:31:04;;;;;;;0.70;0.60;;;;;;;;;;5026027;28;20211;-60
2022/10/11 12:33:46;;;;;;;2.80;0.38;;;;;;;;;;5025406;28;20215;-62
2022/10/11 12:36:30;;;;;;;1.60;0.50;;;;;;;;;;5025550;28;20203;-62
2022/10/11 12:39:12;;;;;;;0.80;0.28;;;;;;;;;;5025067;28;20603;-61
2022/10/11 12:42:06;;;;;;;0.38;0.38;;;;;;;;;;5025657;28;20291;-61
2022/10/11 12:44:33;;;;;;;3.92;0.77;;;;;;;;;;5025719;28;20235;-61
2022/10/11 12:47:27;;;;;;;2.85;0.30;;;;;;;;;;5025498;28;20209;-62
2022/10/11 12:50:02;;;;;;;6.05;0.60;;;;;;;;;;5017410;28;20231;-60
2022/10/11 12:52:34;;;;;;;0.32;0.30;;;;;;;;;;5025457;28;20744;-61
2022/10/11 12:55:11;;;;;;;0.30;0.30;;;;;;;;;;5025727;28;20699;-61
2022/10/11 12:57:51;;;;;;;1.00;0.35;;;;;;;;;;5025956;28;20208;-61
2022/10/11 13:00:19;;;;;;;0.47;0.35;;;;;;;;;;5025843;28;20205;-61
2022/10/11 13:02:47;;;;;;;2.13;0.50;;;;;;;;;;5026096;28;20212;-62
2022/10/11 13:05:21;;;;;;;0.40;0.40;;;;;;;;;;5027408;28;20232;-61
2022/10/11 13:07:49;;;;;;;0.40;0.20;;;;;;;;;;5029469;28;20211;-62
2022/10/11 13:10:16;;;;;;;4.13;0.40;;;;;;;;;;5028058;28;20559;-60
2022/10/11 13:12:45;;;;;;;3.13;0.65;;;;;;;;;;5029294;28;20208;-60
2022/10/11 13:15:16;;;;;;;0.32;0.30;;;;;;;;;;5029454;28;20655;-61
2022/10/11 13:17:43;;;;;;;0.35;0.35;;;;;;;;;;5018971;28;20211;-60
2022/10/11 13:20:16;;;;;;;0.82;0.45;;;;;;;;;;5029290;28;20204;-61
2022/10/11 13:22:43;;;;;;;1.58;0.40;;;;;;;;;;5029362;28;20212;-60
2022/10/11 13:25:15;;;;;;;0.75;0.30;;;;;;;;;;5029319;28;20235;-61
2022/10/11 13:27:42;;;;;;;0.65;0.40;;;;;;;;;;5029310;28;20247;-61
2022/10/11 13:30:13;;;;;;;2.05;0.77;;;;;;;;;;5025126;28;20205;-61
2022/10/11 13:32:43;;;;;;;3.50;0.50;;;;;;;;;;5015711;28;20201;-61
2022/10/11 13:35:16;;;;;;;0.30;0.20;;;;;;;;;;5028992;28;20208;-61
2022/10/11 13:37:45;;;;;;;0.35;0.35;;;;;;;;;;5029405;28;20311;-61
2022/10/11 13:40:14;;;;;;;0.20;0.20;;;;;;;;;;5028205;28;20294;-61
2022/10/11 13:42:41;;;;;;;0.65;0.38;;;;;;;;;;5028437;28;20212;-60
2022/10/11 13:45:11;;;;;;;0.30;0.30;;;;;;;;;;5028983;28;20235;-60
2022/10/11 13:47:38;;;;;;;0.20;0.20;;;;;;;;;;5029161;28;20196;-61
2022/10/11 13:50:11;;;;;;;1.23;0.43;;;;;;;;;;5028877;28;20223;-60
2022/10/11 13:52:55;;;;;;;0.10;0.10;;;;;;;;;;5028818;28;20208;-61
2022/10/11 13:55:24;;;;;;;1.88;0.40;;;;;;;;;;5028114;28;20215;-61
2022/10/11 13:57:52;;;;;;;0.70;0.43;;;;;;;;;;5028750;28;20224;-60
2022/10/11 14:00:22;;;;;;;1.13;0.55;;;;;;;;;;5029082;28;20278;-62
2022/10/11 14:02:50;;;;;;;0.47;0.45;;;;;;;;;;5028409;28;20223;-61
2022/10/11 14:05:24;;;;;;;0.40;0.40;;;;;;;;;;5026645;28;20228;-60
2022/10/11 14:07:51;;;;;;;1.20;0.38;;;;;;;;;;5036222;28;20236;-60
2022/10/11 14:10:19;;;;;;;2.05;0.60;;;;;;;;;;5029626;28;20212;-60
2022/10/11 14:12:57;;;;;;;1.00;0.40;;;;;;;;;;5025781;28;20572;-61
2022/10/11 14:15:26;;;;;;;0.40;0.40;;;;;;;;;;5027100;28;20211;-61
2022/10/11 14:17:53;;;;;;;0.52;0.40;;;;;;;;;;5027043;28;20216;-61
2022/10/11 14:20:22;;;;;;;0.70;0.38;;;;;;;;;;5028222;28;20535;-61
2022/10/11 14:22:52;;;;;;;0.30;0.30;;;;;;;;;;5027094;28;20213;-61
2022/10/11 14:25:19;;;;;;;2.97;0.30;;;;;;;;;;5028004;28;20235;-61
2022/10/11 14:27:46;;;;;;;0.95;0.35;;;;;;;;;;5026642;28;20664;-61
2022/10/11 14:30:15;;;;;;;0.22;0.22;;;;;;;;;;5027936;28;20204;-61
2022/10/11 14:32:42;;;;;;;0.20;0.20;;;;;;;;;;5028317;28;20227;-61
2022/10/11 14:35:15;;;;;;;0.20;0.20;;;;;;;;;;5028076;28;20215;-63
2022/10/11 14:37:42;;;;;;;1.02;0.35;;;;;;;;;;5027693;28;20754;-60
2022/10/11 14:40:14;;;;;;;4.38;0.73;;;;;;;;;;5028351;28;20228;-61
2022/10/11 14:42:41;;;;;;;2.90;0.57;;;;;;;;;;5028072;28;20220;-60
2022/10/11 14:45:08;;;;;;;1.13;0.50;;;;;;;;;;5027928;28;20228;-60
2022/10/11 14:47:35;;;;;;;1.17;0.50;;;;;;;;;;5027416;28;20223;-61
2022/10/11 14:50:03;;;;;;;1.27;0.40;;;;;;;;;;5026622;28;20215;-61
2022/10/11 14:52:30;;;;;;;0.85;0.30;;;;;;;;;;5028078;28;20204;-61
2022/10/11 14:54:57;;;;;;;0.40;0.40;;;;;;;;;;5027671;28;20215;-61
2022/10/11 14:57:26;;;;;;;0.17;0.17;;;;;;;;;;5027847;28;20220;-61
2022/10/11 14:59:53;;;;;;;1.75;0.50;;;;;;;;;;5027349;28;20212;-60
2022/10/11 15:02:20;;;;;;;1.95;0.32;;;;;;;;;;5026934;28;20231;-63